Time;durP1;ratioP1;P1;durP2;ratioP2;P2;SDS_P1;SDS_P2;PMS_P1;PMS_P2;Temp;Humidity;BMP_temperature;BMP_pressure;BME280_temperature;BME280_humidity;BME280_pressure;Samples;Min_cycle;Max_cycle;Signal;HPM_P1;HPM_P2
2022/09/25 00:00:53;;;;;;;;;18.00;16.50;;;;;17.63;52.71;98249.47;4973216;28;104054;-54
2022/09/25 00:03:21;;;;;;;;;16.50;16.50;;;;;17.63;53.44;98250.31;4966808;28;102134;-53
2022/09/25 00:05:48;;;;;;;;;16.25;15.00;;;;;17.63;53.07;98239.38;4977526;28;102447;-53
2022/09/25 00:08:16;;;;;;;;;17.75;16.75;;;;;17.62;53.03;98243.19;4973388;28;102373;-53
2022/09/25 00:10:47;;;;;;;;;17.75;17.00;;;;;17.62;52.94;98245.09;4965489;28;104037;-53
2022/09/25 00:13:18;;;;;;;;;16.50;14.50;;;;;17.62;52.86;98236.88;4967504;28;102508;-53
2022/09/25 00:15:46;;;;;;;;;16.25;15.50;;;;;17.62;52.84;98237.72;4969138;28;102459;-53
2022/09/25 00:18:13;;;;;;;;;17.00;15.25;;;;;17.61;53.30;98235.22;4963570;28;102588;-53
2022/09/25 00:20:40;;;;;;;;;14.50;14.50;;;;;17.60;53.67;98228.94;4965285;28;103753;-53
2022/09/25 00:23:07;;;;;;;;;17.50;14.50;;;;;17.59;53.12;98221.81;4961539;28;102149;-53
2022/09/25 00:25:35;;;;;;;;;12.75;11.75;;;;;17.59;53.85;98226.47;4970271;28;105319;-53
2022/09/25 00:28:02;;;;;;;;;20.00;17.75;;;;;17.58;52.98;98225.63;4968663;28;102582;-53
2022/09/25 00:30:29;;;;;;;;;17.00;15.25;;;;;17.57;52.92;98221.22;4957443;28;104082;-53
2022/09/25 00:32:56;;;;;;;;;16.00;15.00;;;;;17.57;53.34;98223.94;4960757;28;102228;-53
2022/09/25 00:35:23;;;;;;;;;20.00;16.00;;;;;17.57;53.73;98223.13;4963308;28;102925;-53
2022/09/25 00:37:50;;;;;;;;;13.75;13.50;;;;;17.57;53.07;98223.13;4966156;28;102552;-54
2022/09/25 00:40:18;;;;;;;;;16.75;15.00;;;;;17.56;53.03;98213.28;4963446;28;104044;-53
2022/09/25 00:42:45;;;;;;;;;14.25;13.25;;;;;17.55;53.41;98209.72;4956863;28;102576;-53
2022/09/25 00:45:15;;;;;;;;;16.00;15.00;;;;;17.53;52.76;98211.88;4965016;28;102305;-53
2022/09/25 00:47:56;;;;;;;;;14.00;13.75;;;;;17.53;53.41;98209.13;4962398;28;102553;-53
2022/09/25 00:50:28;;;;;;;;;16.75;15.75;;;;;17.53;53.37;98209.13;4965242;28;108699;-53
2022/09/25 00:53:02;;;;;;;;;13.25;13.25;;;;;17.54;53.39;98212.69;4963772;28;102124;-53
2022/09/25 00:55:31;;;;;;;;;17.50;16.00;;;;;17.55;53.21;98214.34;4961344;28;102397;-53
2022/09/25 00:57:58;;;;;;;;;16.75;16.25;;;;;17.53;53.08;98211.88;4953631;28;102573;-53
2022/09/25 01:00:25;;;;;;;;;17.00;16.00;;;;;17.54;53.09;98213.53;4956579;28;104197;-53
2022/09/25 01:02:52;;;;;;;;;17.25;14.50;;;;;17.54;53.47;98209.97;4953393;28;102339;-53
2022/09/25 01:05:25;;;;;;;;;16.75;15.25;;;;;17.52;52.94;98203.91;4970798;28;102544;-53
2022/09/25 01:08:05;;;;;;;;;17.00;15.00;;;;;17.53;53.20;98200.09;4984707;28;102594;-53
2022/09/25 01:10:51;;;;;;;;;15.00;14.25;;;;;17.53;53.13;98208.31;4966433;28;104138;-54
2022/09/25 01:13:37;;;;;;;;;12.50;11.50;;;;;17.52;53.45;98209.38;4971900;28;102187;-53
2022/09/25 01:16:30;;;;;;;;;15.25;14.25;;;;;17.51;53.39;98207.75;4953085;28;101989;-53
2022/09/25 01:19:27;;;;;;;;;20.25;16.75;;;;;17.50;52.78;98206.09;4994140;28;103161;-52
2022/09/25 01:22:55;;;;;;;;;14.00;14.00;;;;;17.49;52.94;98204.44;4973707;28;111435;-53
2022/09/25 01:26:02;;;;;;;;;16.50;14.50;;;;;17.48;53.64;98197.31;4945566;28;104912;-53
2022/09/25 01:29:05;;;;;;;;;13.25;11.75;;;;;17.47;53.01;98201.94;4955229;28;102560;-53
2022/09/25 01:31:42;;;;;;;;;16.50;14.75;;;;;17.47;53.15;98201.16;4989493;28;102253;-53
2022/09/25 01:34:14;;;;;;;;;16.25;14.75;;;;;17.46;53.18;98202.22;4951176;28;104082;-53
2022/09/25 01:36:47;;;;;;;;;15.25;13.25;;;;;17.46;53.51;98204.94;4949386;28;102315;-53
2022/09/25 01:39:21;;;;;;;;;15.00;13.75;;;;;17.45;53.08;98204.13;4935620;28;102544;-53
2022/09/25 01:41:52;;;;;;;;;14.25;12.50;;;;;17.45;53.08;98198.66;4969297;28;102538;-53
2022/09/25 01:44:27;;;;;;;;;15.75;15.75;;;;;17.46;53.52;98200.31;4966534;28;109072;-53
2022/09/25 01:46:55;;;;;;;;;16.00;14.25;;;;;17.46;52.89;98200.31;4934188;28;103735;-53
2022/09/25 01:49:24;;;;;;;;;15.00;13.00;;;;;17.46;53.18;98194.84;4950661;28;103672;-53
2022/09/25 01:51:52;;;;;;;;;16.25;16.25;;;;;17.46;53.15;98196.75;4964091;28;102419;-53
2022/09/25 01:54:27;;;;;;;;;14.75;14.75;;;;;17.47;53.41;98201.16;4965350;28;104244;-53
2022/09/25 01:57:18;;;;;;;;;15.75;15.75;;;;;17.46;53.04;98199.50;4944517;28;102718;-53
2022/09/25 01:59:52;;;;;;;;;18.75;16.00;;;;;17.45;53.06;98193.19;4964371;28;109730;-53
2022/09/25 02:02:22;;;;;;;;;17.00;15.75;;;;;17.45;53.27;98193.19;4950960;28;102194;-53
2022/09/25 02:07:21;;;;;;;;;18.00;15.00;;;;;17.41;52.58;98197.50;5040996;27;102809;-80
2022/09/25 02:09:53;;;;;;;;;17.67;14.67;;;;;17.39;53.46;98191.47;4999494;27;102203;-81
2022/09/25 02:12:24;;;;;;;;;17.00;14.50;;;;;17.39;52.66;98194.19;4813398;28;104175;-79
2022/09/25 02:14:58;;;;;;;;;21.75;15.75;;;;;17.40;53.54;98198.59;4911370;28;102828;-79
2022/09/25 02:20:33;;;;;;;;;16.25;14.50;;;;;17.39;53.18;98196.94;4965277;28;102371;-80
2022/09/25 02:23:17;;;;;;;;;15.00;13.00;;;;;17.38;52.59;98198.03;4971572;28;103770;-80
2022/09/25 02:26:01;;;;;;;;;17.75;15.25;;;;;17.40;52.97;98201.31;4953521;28;102236;-80
2022/09/25 02:28:28;;;;;;;;;13.75;13.50;;;;;17.38;53.07;98198.03;4965855;28;103265;-80
2022/09/25 02:30:56;;;;;;;;;17.75;14.25;;;;;17.39;53.04;98191.47;4941499;28;102587;-80
2022/09/25 02:33:24;;;;;;;;;17.00;15.00;;;;;17.38;53.05;98196.09;4970568;28;104022;-79
2022/09/25 02:35:52;;;;;;;;;14.25;14.25;;;;;17.38;53.18;98193.38;4969257;28;102628;-79
2022/09/25 02:38:19;;;;;;;;;14.00;13.00;;;;;17.40;53.39;98195.84;4979634;28;102356;-79
2022/09/25 02:41:12;;;;;;;;;15.75;15.00;;;;;17.39;52.81;98197.75;4972361;28;102226;-79
2022/09/25 02:44:17;;;;;;;;;17.25;14.50;;;;;17.39;53.26;98205.13;4982431;28;108907;-80
2022/09/25 02:47:13;;;;;;;;;16.75;14.75;;;;;17.38;53.33;98193.38;4978521;28;103330;-80
2022/09/25 02:49:59;;;;;;;;;14.00;13.00;;;;;17.39;53.16;98194.19;4983375;28;102634;-80
2022/09/25 02:52:46;;;;;;;;;14.75;13.50;;;;;17.37;52.76;98189.00;4989822;28;102859;-79
2022/09/25 02:55:22;;;;;;;;;13.33;12.33;;;;;17.38;53.21;98187.09;4966156;28;109506;-79
2022/09/25 02:57:55;;;;;;;;;14.00;13.00;;;;;17.37;53.88;98186.28;4966202;28;102596;-79
2022/09/25 03:00:22;;;;;;;;;15.25;14.50;;;;;17.36;52.87;98179.16;4970488;28;102568;-79
2022/09/25 03:02:52;;;;;;;;;15.50;14.50;;;;;17.36;53.05;98181.06;4986507;28;102438;-80
2022/09/25 03:05:20;;;;;;;;;16.25;16.00;;;;;17.36;52.68;98178.31;4963562;28;104373;-80
2022/09/25 03:10:33;;;;;;;;;16.00;15.00;;;;;17.34;52.68;98181.28;4968453;28;102227;-79
2022/09/25 03:13:32;;;;;;;;;16.75;15.75;;;;;17.33;53.11;98176.09;4949662;28;102763;-79
2022/09/25 03:16:10;;;;;;;;;18.00;15.00;;;;;17.33;52.87;98178.84;4905807;28;108650;-79
2022/09/25 03:18:37;;;;;;;;;16.00;15.00;;;;;17.33;53.55;98184.31;4952737;28;104374;-79
2022/09/25 03:21:04;;;;;;;;;16.00;14.33;;;;;17.33;53.32;98178.84;4948612;28;102581;-79
2022/09/25 03:23:31;;;;;;;;;16.50;14.75;;;;;17.33;53.03;98173.38;4973490;28;102333;-79
2022/09/25 03:25:58;;;;;;;;;16.25;15.00;;;;;17.34;52.76;98186.75;4954952;28;104027;-79
2022/09/25 03:28:25;;;;;;;;;15.50;15.50;;;;;17.34;52.54;98181.28;4971132;28;102077;-79
2022/09/25 03:30:57;;;;;;;;;12.50;10.75;;;;;17.34;53.03;98172.25;4976084;28;102201;-79
2022/09/25 03:33:24;;;;;;;;;16.75;14.25;;;;;17.35;53.46;98176.66;4956797;28;102452;-80
2022/09/25 03:36:02;;;;;;;;;18.25;15.25;;;;;17.34;53.39;98178.56;4956501;28;104230;-79
2022/09/25 03:38:29;;;;;;;;;16.25;14.75;;;;;17.34;53.22;98172.25;4969566;28;102617;-80
2022/09/25 03:40:56;;;;;;;;;16.25;16.00;;;;;17.33;52.63;98156.97;4968614;28;102632;-79
2022/09/25 03:43:23;;;;;;;;;17.25;16.75;;;;;17.33;53.21;98162.44;4968305;28;102634;-80
2022/09/25 03:45:50;;;;;;;;;14.50;13.75;;;;;17.33;53.23;98162.44;4937337;28;104409;-79
2022/09/25 03:48:17;;;;;;;;;13.75;13.50;;;;;17.33;52.80;98159.72;4971298;28;102616;-79
2022/09/25 03:50:45;;;;;;;;;19.00;16.50;;;;;17.31;53.20;98159.94;4972560;28;102460;-80
2022/09/25 03:53:12;;;;;;;;;12.75;12.75;;;;;17.32;52.87;98163.50;4972551;28;102653;-80
2022/09/25 03:55:38;;;;;;;;;17.00;15.00;;;;;17.31;53.08;98154.47;4976014;28;104091;-80
2022/09/25 03:58:05;;;;;;;;;17.50;14.50;;;;;17.30;53.18;98157.47;4971954;28;102240;-79
2022/09/25 04:00:32;;;;;;;;;16.25;15.50;;;;;17.30;52.66;98163.75;4936274;28;102509;-79
2022/09/25 04:02:59;;;;;;;;;16.25;15.00;;;;;17.29;52.92;98156.63;4955749;28;102523;-79
2022/09/25 04:05:26;;;;;;;;;15.00;13.25;;;;;17.29;52.67;98158.56;4973620;28;103791;-80
2022/09/25 04:07:53;;;;;;;;;17.25;15.25;;;;;17.28;53.35;98165.09;4966252;28;102694;-80
2022/09/25 04:10:36;;;;;;;;;16.25;13.50;;;;;17.29;52.62;98162.09;4968692;28;104405;-79
2022/09/25 04:13:03;;;;;;;;;15.50;15.00;;;;;17.29;53.40;98158.56;4971616;28;103354;-78
2022/09/25 04:15:31;;;;;;;;;15.25;15.00;;;;;17.28;53.01;98160.47;4952772;28;104066;-78
2022/09/25 04:17:58;;;;;;;;;14.50;14.00;;;;;17.29;53.03;98162.09;4948151;28;111130;-78
2022/09/25 04:20:31;;;;;;;;;15.25;15.00;;;;;17.29;52.79;98164.03;4973327;28;102351;-78
2022/09/25 04:22:58;;;;;;;;;15.25;14.25;;;;;17.28;53.26;98155.00;4954256;28;102933;-78
2022/09/25 04:25:25;;;;;;;;;15.25;15.00;;;;;17.29;52.58;98166.75;4972129;28;104044;-78
2022/09/25 04:27:54;;;;;;;;;21.25;18.00;;;;;17.29;52.54;98161.31;4973543;28;102184;-78
2022/09/25 04:30:21;;;;;;;;;16.25;15.50;;;;;17.29;53.03;98162.09;4971773;28;102439;-77
2022/09/25 04:35:34;;;;;;;;;16.00;15.00;;;;;17.28;52.91;98165.09;4955826;28;108996;-78
2022/09/25 04:38:01;;;;;;;;;16.75;15.25;;;;;17.27;52.61;98169.75;4970674;28;102397;-78
2022/09/25 04:40:28;;;;;;;;;16.00;14.75;;;;;17.26;53.21;98161.78;4971846;28;102423;-78
2022/09/25 04:42:56;;;;;;;;;15.25;13.25;;;;;17.25;52.36;98165.59;4969257;28;102452;-78
2022/09/25 04:45:25;;;;;;;;;17.50;15.00;;;;;17.27;52.54;98174.38;4970625;28;104016;-78
2022/09/25 04:47:53;;;;;;;;;16.25;14.25;;;;;17.25;53.37;98165.59;4936040;28;102526;-79
2022/09/25 04:50:23;;;;;;;;;14.75;13.50;;;;;17.26;53.31;98172.72;4971670;28;102426;-78
2022/09/25 04:52:50;;;;;;;;;15.75;14.00;;;;;17.24;53.65;98161.22;4971557;28;102451;-78
2022/09/25 04:55:18;;;;;;;;;16.25;13.75;;;;;17.24;53.47;98169.44;4954412;28;104031;-78
2022/09/25 04:57:45;;;;;;;;;16.00;15.50;;;;;17.24;53.52;98169.44;4972114;28;103074;-78
2022/09/25 05:00:28;;;;;;;;;15.75;14.75;;;;;17.24;53.41;98169.44;4936393;28;102437;-78
2022/09/25 05:02:55;;;;;;;;;19.75;17.00;;;;;17.24;53.30;98163.97;4964368;28;102758;-78
2022/09/25 05:05:28;;;;;;;;;15.50;13.00;;;;;17.24;53.03;98173.00;4950648;28;104203;-79
2022/09/25 05:07:56;;;;;;;;;15.50;15.50;;;;;17.25;53.03;98173.78;4935828;28;102306;-78
2022/09/25 05:10:26;;;;;;;;;17.00;14.25;;;;;17.25;53.29;98171.06;4964999;28;102633;-78
2022/09/25 05:12:54;;;;;;;;;16.50;15.25;;;;;17.24;52.18;98181.19;4944124;28;102760;-78
2022/09/25 05:15:21;;;;;;;;;17.00;13.50;;;;;17.25;53.11;98182.00;4946623;28;104239;-78
2022/09/25 05:17:49;;;;;;;;;17.00;15.50;;;;;17.24;53.07;98191.28;4968010;28;102158;-78
2022/09/25 05:20:16;;;;;;;;;17.25;16.25;;;;;17.23;52.53;98184.16;4971344;28;102271;-78
2022/09/25 05:22:43;;;;;;;;;9.75;7.25;;;;;17.23;53.05;98185.00;4972037;28;102698;-78
2022/09/25 05:25:10;;;;;;;;;18.25;16.50;;;;;17.24;52.66;98185.81;4970980;28;103920;-79
2022/09/25 05:27:37;;;;;;;;;15.75;14.75;;;;;17.23;52.83;98185.00;4951653;28;102741;-78
2022/09/25 05:30:07;;;;;;;;;17.25;14.75;;;;;17.23;53.31;98189.63;4972302;28;102289;-78
2022/09/25 05:32:34;;;;;;;;;14.50;13.00;;;;;17.22;53.41;98183.34;4971023;28;103309;-78
2022/09/25 05:35:02;;;;;;;;;14.75;14.25;;;;;17.22;52.95;98194.28;4945750;28;104206;-78
2022/09/25 05:37:29;;;;;;;;;15.00;14.75;;;;;17.22;52.44;98190.72;4967614;28;102192;-78
2022/09/25 05:39:56;;;;;;;;;13.25;11.50;;;;;17.22;52.88;98187.97;4970333;28;102505;-78
2022/09/25 05:42:23;;;;;;;;;19.75;16.00;;;;;17.22;52.36;98182.50;4967964;28;103815;-78
2022/09/25 05:44:50;;;;;;;;;16.25;15.00;;;;;17.20;53.26;98192.88;4968508;28;103715;-78
2022/09/25 05:47:17;;;;;;;;;16.00;14.25;;;;;17.20;53.28;98190.94;4953524;28;102209;-78
2022/09/25 05:49:44;;;;;;;;;16.50;15.00;;;;;17.21;52.45;98191.78;4955538;28;105225;-78
2022/09/25 05:52:11;;;;;;;;;17.75;15.00;;;;;17.20;52.29;98196.41;4973791;28;102554;-78
2022/09/25 05:54:38;;;;;;;;;14.50;13.25;;;;;17.20;52.78;98187.41;4952147;28;104018;-78
2022/09/25 05:57:05;;;;;;;;;18.25;16.25;;;;;17.21;53.02;98186.31;4968974;28;102472;-78
2022/09/25 05:59:33;;;;;;;;;14.75;14.50;;;;;17.21;53.13;98183.59;4964259;28;102455;-78
2022/09/25 06:02:00;;;;;;;;;14.25;14.25;;;;;17.21;52.79;98183.59;4971006;28;102550;-78
2022/09/25 06:04:27;;;;;;;;;17.00;16.00;;;;;17.21;52.18;98183.59;4961625;28;104186;-78
2022/09/25 06:06:54;;;;;;;;;17.00;16.00;;;;;17.21;52.27;98175.38;4971102;28;102664;-78
2022/09/25 06:09:21;;;;;;;;;17.75;15.50;;;;;17.20;53.05;98171.03;4965141;28;102585;-78
2022/09/25 06:11:50;;;;;;;;;16.50;15.75;;;;;17.19;53.37;98172.94;4941319;28;102532;-78
2022/09/25 06:14:19;;;;;;;;;14.00;13.00;;;;;17.19;52.99;98178.41;4968460;28;104051;-78
2022/09/25 06:16:49;;;;;;;;;16.75;16.00;;;;;17.19;52.98;98172.94;4971589;28;102370;-78
2022/09/25 06:19:16;;;;;;;;;16.50;15.50;;;;;17.19;52.83;98170.19;4964098;28;102416;-78
2022/09/25 06:21:43;;;;;;;;;14.75;13.00;;;;;17.18;53.00;98165.81;4966564;28;102540;-78
2022/09/25 06:24:10;;;;;;;;;16.25;14.75;;;;;17.18;52.33;98168.53;4961534;28;104317;-79
2022/09/25 06:26:37;;;;;;;;;15.50;14.00;;;;;17.18;53.01;98173.16;4973483;28;102433;-79
2022/09/25 06:29:06;;;;;;;;;18.75;15.00;;;;;17.17;52.71;98168.78;4969181;28;102183;-79
2022/09/25 06:31:34;;;;;;;;;13.00;13.00;;;;;17.17;53.18;98175.06;4916798;28;102664;-79
2022/09/25 06:34:01;;;;;;;;;15.75;15.25;;;;;17.17;52.54;98166.03;4948599;28;104343;-79
2022/09/25 06:36:28;;;;;;;;;17.25;15.00;;;;;17.17;53.57;98168.78;4971082;28;102173;-79
2022/09/25 06:38:55;;;;;;;;;17.75;16.75;;;;;17.16;52.44;98170.69;4968774;28;102441;-79
2022/09/25 06:41:22;;;;;;;;;16.75;15.75;;;;;17.16;52.94;98173.41;4968872;28;102406;-80
2022/09/25 06:43:49;;;;;;;;;17.50;15.75;;;;;17.15;52.59;98171.78;4937987;28;104038;-80
2022/09/25 06:46:18;;;;;;;;;15.00;14.50;;;;;17.17;52.25;98174.25;4962839;28;102351;-81
2022/09/25 06:48:56;;;;;;;;;18.25;15.00;;;;;17.16;52.52;98175.31;4961542;28;102180;-81
2022/09/25 06:51:24;;;;;;;;;14.25;14.00;;;;;17.17;52.89;98175.06;4963874;28;103623;-81
2022/09/25 06:53:52;;;;;;;;;15.50;15.00;;;;;17.17;52.22;98180.53;4973566;28;103554;-82
2022/09/25 06:56:19;;;;;;;;;15.00;13.75;;;;;17.17;52.76;98179.72;4975011;28;102230;-81
2022/09/25 06:58:46;;;;;;;;;15.25;14.50;;;;;17.17;52.45;98182.44;4971286;28;102684;-81
2022/09/25 07:01:13;;;;;;;;;15.50;13.00;;;;;17.16;52.92;98183.50;4970140;28;102440;-81
2022/09/25 07:03:43;;;;;;;;;14.75;13.75;;;;;17.15;53.07;98179.97;4972382;28;104352;-81
2022/09/25 07:06:14;;;;;;;;;14.50;12.25;;;;;17.17;52.55;98176.97;4965614;28;102754;-81
2022/09/25 07:08:42;;;;;;;;;21.00;16.25;;;;;17.16;52.61;98181.59;4968923;28;102375;-82
2022/09/25 07:11:12;;;;;;;;;18.00;15.25;;;;;17.15;52.52;98177.25;4954437;28;105397;-81
2022/09/25 07:13:39;;;;;;;;;16.75;15.00;;;;;17.15;52.89;98170.97;4963817;28;108877;-81
2022/09/25 07:16:09;;;;;;;;;13.75;12.75;;;;;17.15;52.82;98170.97;4957577;28;102193;-81
2022/09/25 07:18:36;;;;;;;;;14.50;14.00;;;;;17.14;53.37;98181.06;4960705;28;102165;-81
2022/09/25 07:21:05;;;;;;;;;16.75;16.50;;;;;17.14;53.14;98186.50;4968596;28;102272;-81
2022/09/25 07:23:32;;;;;;;;;18.75;18.25;;;;;17.14;52.93;98185.69;4968537;28;104036;-81
2022/09/25 07:26:09;;;;;;;;;19.00;17.25;;;;;17.15;52.74;98187.34;4927762;28;102365;-81
2022/09/25 07:28:39;;;;;;;;;15.00;14.00;;;;;17.13;53.29;98176.66;4969469;28;102774;-81
2022/09/25 07:31:17;;;;;;;;;15.50;15.50;;;;;17.14;52.68;98188.41;4966715;28;102553;-81
2022/09/25 07:33:45;;;;;;;;;15.50;14.75;;;;;17.13;52.85;98184.84;4927268;28;112010;-81
2022/09/25 07:36:12;;;;;;;;;17.00;15.75;;;;;17.14;52.10;98181.06;4953799;28;102243;-81
2022/09/25 07:38:40;;;;;;;;;16.25;14.75;;;;;17.14;52.13;98175.59;4972434;28;102531;-81
2022/09/25 07:41:09;;;;;;;;;14.00;12.75;;;;;17.14;51.84;98169.28;4972969;28;102634;-80
2022/09/25 07:43:41;;;;;;;;;14.50;13.00;;;;;17.15;51.98;98162.75;4924757;28;109510;-81
2022/09/25 07:46:08;;;;;;;;;20.25;17.25;;;;;17.15;52.70;98162.75;4947979;28;102604;-80
2022/09/25 07:48:35;;;;;;;;;18.50;17.25;;;;;17.15;51.27;98162.75;4968799;28;102739;-81
2022/09/25 07:51:03;;;;;;;;;19.50;17.25;;;;;17.15;52.31;98160.03;4936585;28;102519;-81
2022/09/25 07:53:30;;;;;;;;;12.50;10.50;;;;;17.15;52.04;98170.97;4953555;28;104062;-80
2022/09/25 07:56:00;;;;;;;;;17.25;16.25;;;;;17.14;51.46;98167.41;4969356;28;102145;-81
2022/09/25 07:58:33;;;;;;;;;22.00;19.00;;;;;17.15;52.64;98170.97;4967151;28;102685;-81
2022/09/25 08:01:00;;;;;;;;;23.00;19.75;;;;;17.16;53.32;98161.66;4963811;28;104325;-81
2022/09/25 08:03:28;;;;;;;;;19.75;16.25;;;;;17.17;52.98;98171.50;4963034;28;104806;-81
2022/09/25 08:06:02;;;;;;;;;20.00;17.25;;;;;17.16;52.79;98167.94;4967027;28;102736;-81
2022/09/25 08:08:29;;;;;;;;;19.00;17.00;;;;;17.17;52.64;98164.16;4972187;28;102535;-81
2022/09/25 08:11:05;;;;;;;;;25.25;19.00;;;;;17.16;52.62;98162.47;4973924;28;102613;-81
2022/09/25 08:13:33;;;;;;;;;18.50;17.00;;;;;17.16;52.53;98159.75;4943518;28;105663;-81
2022/09/25 08:16:04;;;;;;;;;19.25;16.25;;;;;17.17;52.60;98168.78;4970688;28;104148;-81
2022/09/25 08:18:31;;;;;;;;;14.75;14.00;;;;;17.15;52.92;98157.28;4961916;28;102192;-81
2022/09/25 08:21:02;;;;;;;;;20.25;19.00;;;;;17.16;53.13;98162.47;4967603;28;102514;-81
2022/09/25 08:23:29;;;;;;;;;19.50;16.00;;;;;17.16;52.51;98161.66;4971656;28;104072;-81
2022/09/25 08:25:57;;;;;;;;;19.50;17.50;;;;;17.16;52.85;98157.03;4970810;28;102539;-81
2022/09/25 08:28:24;;;;;;;;;22.00;17.75;;;;;17.16;52.48;98157.03;4947419;28;102155;-81
2022/09/25 08:30:51;;;;;;;;;20.00;18.00;;;;;17.18;52.98;98157.59;4963184;28;102680;-81
2022/09/25 08:33:18;;;;;;;;;16.00;15.75;;;;;17.20;52.69;98162.81;4966622;28;104434;-81
2022/09/25 08:35:56;;;;;;;;;19.50;16.00;;;;;17.20;52.77;98154.63;4955993;28;102281;-81
2022/09/25 08:38:24;;;;;;;;;17.25;14.50;;;;;17.21;52.50;98151.63;4951135;28;102371;-81
2022/09/25 08:41:23;;;;;;;;;15.00;14.67;;;;;17.20;52.86;98158.16;4944394;28;102479;-81
2022/09/25 08:44:04;;;;;;;;;20.50;18.25;;;;;17.22;52.35;98156.00;4954932;28;108764;-81
2022/09/25 08:49:27;;;;;;;;;20.50;18.25;;;;;17.22;52.96;98156.00;4957462;28;102337;-81
2022/09/25 08:51:57;;;;;;;;;19.75;17.50;;;;;17.22;52.33;98145.09;4951262;28;102330;-81
2022/09/25 08:54:28;;;;;;;;;17.50;16.75;;;;;17.21;52.96;98137.97;4949976;28;104005;-81
2022/09/25 08:57:00;;;;;;;;;16.25;16.00;;;;;17.21;52.93;98137.13;4954584;28;102395;-81
2022/09/25 08:59:37;;;;;;;;;13.00;12.75;;;;;17.21;52.25;98132.50;4934714;28;102800;-81
2022/09/25 09:02:19;;;;;;;;;19.25;17.50;;;;;17.21;52.38;98131.66;4968140;28;102272;-81
2022/09/25 09:05:00;;;;;;;;;14.00;13.25;;;;;17.21;52.65;98131.66;4943925;28;109424;-81
2022/09/25 09:07:34;;;;;;;;;14.75;13.75;;;;;17.21;53.02;98140.69;4969660;28;102347;-81
2022/09/25 09:10:16;;;;;;;;;16.00;15.25;;;;;17.21;52.66;98137.13;4935397;28;102537;-81
2022/09/25 09:12:56;;;;;;;;;17.25;16.00;;;;;17.20;52.84;98136.31;4947470;28;102734;-81
2022/09/25 09:15:49;;;;;;;;;18.25;16.75;;;;;17.21;53.03;98137.13;4953153;28;104015;-81
2022/09/25 09:18:27;;;;;;;;;15.00;14.25;;;;;17.20;52.31;98125.38;4960861;28;102442;-81
2022/09/25 09:20:56;;;;;;;;;16.75;16.00;;;;;17.22;53.43;98133.31;4954061;28;102429;-81
2022/09/25 09:23:28;;;;;;;;;17.25;15.50;;;;;17.21;52.50;98127.03;4957187;28;102541;-81
2022/09/25 09:26:15;;;;;;;;;16.00;14.00;;;;;17.22;53.66;98133.31;4967435;28;103813;-81
2022/09/25 09:28:49;;;;;;;;;20.75;16.25;;;;;17.22;52.78;98133.31;4949945;28;102509;-81
2022/09/25 09:31:16;;;;;;;;;16.50;16.00;;;;;17.22;53.38;98127.88;4931637;28;102725;-81
2022/09/25 09:33:53;;;;;;;;;16.75;16.50;;;;;17.24;53.18;98125.72;4966121;28;103323;-81
2022/09/25 09:36:49;;;;;;;;;17.25;16.25;;;;;17.25;52.98;98138.28;4947598;28;104065;-81
2022/09/25 09:39:49;;;;;;;;;21.00;18.25;;;;;17.25;53.30;98146.47;4968404;28;102324;-81
2022/09/25 09:42:42;;;;;;;;;17.50;16.75;;;;;17.27;53.07;98149.78;4942654;28;102452;-80
2022/09/25 09:45:37;;;;;;;;;17.00;16.00;;;;;17.26;53.73;98145.41;4925899;28;102362;-80
2022/09/25 09:48:16;;;;;;;;;20.50;17.00;;;;;17.27;53.66;98138.84;4959568;28;108825;-80
2022/09/25 09:50:45;;;;;;;;;22.75;19.75;;;;;17.28;53.56;98130.41;4966172;28;102464;-80
2022/09/25 09:53:21;;;;;;;;;18.50;18.00;;;;;17.27;53.93;98127.94;4952927;28;102915;-81
2022/09/25 09:55:49;;;;;;;;;20.00;17.75;;;;;17.27;53.88;98126.03;4959933;28;102504;-81
2022/09/25 09:58:21;;;;;;;;;19.00;17.50;;;;;17.28;54.85;98122.22;4929994;28;102771;-81
2022/09/25 10:00:49;;;;;;;;;19.00;18.00;;;;;17.29;54.85;98123.03;4948314;28;102563;-81
2022/09/25 10:03:24;;;;;;;;;20.50;17.00;;;;;17.29;54.77;98123.84;4926865;28;102677;-81
2022/09/25 10:05:59;;;;;;;;;21.00;19.50;;;;;17.30;54.64;98113.75;4949579;28;102557;-81
2022/09/25 10:08:26;;;;;;;;;18.50;17.00;;;;;17.30;54.24;98113.75;4944359;28;103766;-80
2022/09/25 10:10:53;;;;;;;;;26.25;20.50;;;;;17.30;54.49;98116.47;4963608;28;102647;-80
2022/09/25 10:13:31;;;;;;;;;14.25;14.25;;;;;17.32;54.36;98106.13;4945252;28;102365;-80
2022/09/25 10:16:30;;;;;;;;;21.00;18.25;;;;;17.32;53.94;98109.69;4931267;28;104556;-81
2022/09/25 10:19:39;;;;;;;;;19.25;17.25;;;;;17.34;53.82;98103.94;4934367;28;109017;-80
2022/09/25 10:22:18;;;;;;;;;24.50;20.50;;;;;17.35;53.91;98100.13;4929125;28;102560;-80
2022/09/25 10:24:54;;;;;;;;;17.00;15.50;;;;;17.35;54.18;98111.06;4947453;28;102037;-81
2022/09/25 10:27:36;;;;;;;;;19.25;15.25;;;;;17.35;54.03;98111.06;4929768;28;102788;-80
2022/09/25 10:30:09;;;;;;;;;24.25;22.25;;;;;17.36;54.96;98112.72;4951465;28;104284;-80
2022/09/25 10:32:47;;;;;;;;;22.75;21.75;;;;;17.35;53.86;98100.13;4953234;28;102838;-80
2022/09/25 10:35:40;;;;;;;;;23.25;19.25;;;;;17.35;54.82;98105.59;4949520;28;102766;-80
2022/09/25 10:38:47;;;;;;;;;20.75;19.75;;;;;17.37;54.13;98103.44;4954508;28;104726;-80
2022/09/25 10:41:16;;;;;;;;;27.25;20.75;;;;;17.36;54.49;98097.16;4942988;28;107455;-80
2022/09/25 10:43:53;;;;;;;;;20.00;17.50;;;;;17.37;54.36;98096.09;4950733;28;102494;-81
2022/09/25 10:52:09;;;;;;;;;25.50;21.50;;;;;17.40;54.74;98097.47;4948865;28;108645;-81
2022/09/25 10:54:37;;;;;;;;;16.75;15.75;;;;;17.40;55.45;98084.63;4936328;28;103303;-81
2022/09/25 10:57:16;;;;;;;;;19.00;18.00;;;;;17.40;55.37;98097.47;4969771;28;102666;-81
2022/09/25 10:59:48;;;;;;;;;25.50;22.00;;;;;17.41;55.32;98093.66;4950635;28;103135;-80
2022/09/25 11:02:27;;;;;;;;;24.75;20.00;;;;;17.44;54.95;98086.84;4952812;28;103965;-81
2022/09/25 11:04:55;;;;;;;;;21.50;18.25;;;;;17.43;54.97;98086.00;4947519;28;102823;-81
2022/09/25 11:07:26;;;;;;;;;19.50;18.25;;;;;17.44;54.66;98090.41;4959996;28;102298;-81
2022/09/25 11:09:53;;;;;;;;;22.25;21.75;;;;;17.47;55.29;98076.19;4943856;28;102471;-81
2022/09/25 11:12:26;;;;;;;;;23.75;19.50;;;;;17.47;55.16;98081.66;4955686;28;111551;-81
2022/09/25 11:14:56;;;;;;;;;16.75;16.75;;;;;17.47;54.57;98064.47;4940775;28;102317;-81
2022/09/25 11:17:31;;;;;;;;;19.25;18.50;;;;;17.49;54.62;98078.69;4965772;28;102580;-80
2022/09/25 11:20:28;;;;;;;;;21.00;20.00;;;;;17.49;54.85;98076.78;4966472;28;102945;-80
2022/09/25 11:23:04;;;;;;;;;22.00;20.00;;;;;17.51;54.87;98077.38;4960945;28;108913;-80
2022/09/25 11:25:52;;;;;;;;;17.50;13.75;;;;;17.51;54.39;98074.63;4965653;28;102224;-80
2022/09/25 11:28:48;;;;;;;;;21.50;19.75;;;;;17.52;54.07;98079.00;4960926;28;102769;-81
2022/09/25 11:31:24;;;;;;;;;20.25;18.00;;;;;17.53;55.29;98074.34;4966138;28;102476;-80
2022/09/25 11:34:38;;;;;;;;;20.25;19.00;;;;;17.55;54.78;98075.75;4948523;28;104030;-80
2022/09/25 11:37:21;;;;;;;;;22.75;19.25;;;;;17.54;54.53;98063.16;4923237;28;102893;-79
2022/09/25 11:42:58;;;;;;;;;22.25;19.75;;;;;17.56;54.44;98066.47;4964302;28;102612;-80
2022/09/25 11:45:48;;;;;;;;;19.25;18.75;;;;;17.57;54.29;98062.66;4952005;28;104051;-80
2022/09/25 11:48:21;;;;;;;;;19.50;18.75;;;;;17.57;54.76;98067.28;4949893;28;104334;-80
2022/09/25 11:51:21;;;;;;;;;19.75;18.50;;;;;17.58;54.34;98058.88;4952765;28;102211;-80
2022/09/25 11:54:12;;;;;;;;;12.25;10.75;;;;;17.58;54.47;98039.72;4939069;28;102869;-80
2022/09/25 11:57:15;;;;;;;;;21.75;19.00;;;;;17.60;54.11;98036.75;4965256;28;108695;-80
2022/09/25 12:00:25;;;;;;;;;18.50;17.00;;;;;17.60;54.42;98040.31;4943219;28;103368;-80